Time;durP1;ratioP1;P1;durP2;ratioP2;P2;SDS_P1;SDS_P2;PMS_P1;PMS_P2;Temp;Humidity;BMP_temperature;BMP_pressure;BME280_temperature;BME280_humidity;BME280_pressure;Samples;Min_cycle;Max_cycle;Signal;HPM_P1;HPM_P2
2022/12/31 00:00:32;;;;;;;0.97;0.97;;;;;;;13.79;68.01;100151.69;4905525;28;96906;-52
2022/12/31 00:02:58;;;;;;;2.60;1.13;;;;;;;13.82;68.14;100145.88;4905684;28;97479;-52
2022/12/31 00:05:23;;;;;;;0.83;0.83;;;;;;;13.83;68.15;100155.66;4904925;28;97417;-51
2022/12/31 00:07:48;;;;;;;0.90;0.90;;;;;;;13.85;68.19;100155.13;4904111;28;97059;-52
2022/12/31 00:10:14;;;;;;;1.20;1.10;;;;;;;13.86;68.48;100143.56;4905561;28;102779;-53
2022/12/31 00:12:39;;;;;;;0.93;0.93;;;;;;;13.91;68.35;100153.75;4904341;28;97019;-53
2022/12/31 00:15:05;;;;;;;1.07;1.07;;;;;;;13.93;68.27;100145.72;4904734;28;97144;-58
2022/12/31 00:17:31;;;;;;;0.90;0.90;;;;;;;13.95;68.41;100156.22;4906094;28;98799;-53
2022/12/31 00:19:56;;;;;;;0.80;0.80;;;;;;;13.95;68.47;100162.50;4905368;28;97304;-53
2022/12/31 00:22:22;;;;;;;0.93;0.93;;;;;;;13.97;68.50;100165.50;4904983;28;97346;-53
2022/12/31 00:24:47;;;;;;;0.93;0.93;;;;;;;13.99;68.54;100153.91;4904758;28;97205;-58
2022/12/31 00:27:12;;;;;;;1.00;1.00;;;;;;;14.00;68.53;100155.41;4905021;28;96789;-52
2022/12/31 00:29:38;;;;;;;1.17;1.10;;;;;;;14.01;68.55;100152.09;4904708;28;97154;-53
2022/12/31 00:32:04;;;;;;;0.97;0.97;;;;;;;14.03;68.58;100157.84;4905278;28;96973;-56
2022/12/31 00:34:29;;;;;;;0.90;0.90;;;;;;;14.06;68.56;100156.81;4901376;28;99345;-53
2022/12/31 00:36:54;;;;;;;0.80;0.80;;;;;;;14.09;68.61;100149.44;4904859;28;97184;-52
2022/12/31 00:39:19;;;;;;;1.43;1.00;;;;;;;14.07;68.66;100161.03;4905107;28;97134;-52
2022/12/31 00:41:45;;;;;;;1.30;1.20;;;;;;;14.05;68.77;100163.59;4903738;28;97659;-53
2022/12/31 00:44:11;;;;;;;1.60;0.97;;;;;;;14.05;68.82;100168.38;4903210;28;97170;-52
2022/12/31 00:46:36;;;;;;;0.80;0.80;;;;;;;14.06;68.84;100161.59;4905200;28;97177;-52
2022/12/31 00:49:02;;;;;;;0.77;0.77;;;;;;;14.05;68.83;100160.06;4904730;28;97458;-51
2022/12/31 00:51:28;;;;;;;1.10;0.90;;;;;;;14.04;68.81;100156.56;4903230;28;96949;-52
2022/12/31 00:53:54;;;;;;;0.90;0.90;;;;;;;14.06;68.88;100161.59;4903599;28;97292;-52
2022/12/31 00:56:22;;;;;;;0.70;0.70;;;;;;;14.05;68.80;100152.53;4904229;28;97725;-52
2022/12/31 00:58:48;;;;;;;0.90;0.90;;;;;;;14.05;68.80;100151.78;4904653;28;97156;-52
2022/12/31 01:01:21;;;;;;;1.90;0.87;;;;;;;14.07;68.90;100149.97;4903394;28;97156;-53
2022/12/31 01:03:49;;;;;;;1.03;0.93;;;;;;;14.06;68.93;100169.88;4892759;28;100661;-52
2022/12/31 01:06:15;;;;;;;0.80;0.80;;;;;;;14.07;69.07;100157.53;4905685;28;97695;-52
2022/12/31 01:08:40;;;;;;;1.57;0.90;;;;;;;14.08;68.84;100167.34;4905743;28;96959;-52
2022/12/31 01:11:18;;;;;;;0.90;0.90;;;;;;;14.08;68.85;100159.78;4905592;28;97121;-51
2022/12/31 01:13:55;;;;;;;0.80;0.80;;;;;;;14.08;68.91;100165.31;4905486;28;97162;-52
2022/12/31 01:16:23;;;;;;;0.70;0.70;;;;;;;14.08;68.75;100164.56;4905970;28;97592;-51
2022/12/31 01:18:50;;;;;;;0.80;0.80;;;;;;;14.09;68.99;100174.34;4904811;28;97399;-57
2022/12/31 01:21:16;;;;;;;0.77;0.77;;;;;;;14.07;68.84;100172.13;4905533;28;97217;-53
2022/12/31 01:23:42;;;;;;;0.60;0.60;;;;;;;14.06;68.84;100173.41;4903846;28;96927;-55
2022/12/31 01:26:10;;;;;;;0.70;0.70;;;;;;;14.06;68.69;100172.66;4905918;28;97113;-53
2022/12/31 01:28:36;;;;;;;0.60;0.60;;;;;;;14.06;68.91;100178.19;4904980;28;96854;-53
2022/12/31 01:31:06;;;;;;;0.70;0.70;;;;;;;14.07;68.95;100172.13;4905247;28;97177;-52
2022/12/31 01:33:32;;;;;;;1.00;0.73;;;;;;;14.08;68.91;100183.94;4905421;28;97235;-52
2022/12/31 01:36:02;;;;;;;1.37;0.80;;;;;;;14.07;69.01;100187.97;4905363;28;97230;-52
2022/12/31 01:38:27;;;;;;;1.17;1.17;;;;;;;14.05;69.08;100187.75;4903934;28;97369;-52
2022/12/31 01:40:52;;;;;;;0.70;0.70;;;;;;;14.05;69.25;100190.50;4906923;28;96993;-52
2022/12/31 01:43:19;;;;;;;0.90;0.80;;;;;;;14.04;69.25;100183.50;4904926;28;97370;-53
2022/12/31 01:45:48;;;;;;;0.70;0.70;;;;;;;14.06;69.29;100187.22;4904748;28;97157;-54
2022/12/31 01:48:18;;;;;;;0.97;0.83;;;;;;;14.09;69.23;100190.94;4903891;28;96856;-52
2022/12/31 01:50:45;;;;;;;1.10;0.80;;;;;;;14.11;69.04;100189.13;4904335;28;96989;-52
2022/12/31 01:53:11;;;;;;;0.70;0.70;;;;;;;14.12;69.19;100179.59;4902817;28;97850;-53
2022/12/31 01:55:41;;;;;;;1.60;0.77;;;;;;;14.10;69.15;100189.69;4905568;28;96925;-51
2022/12/31 01:58:15;;;;;;;0.90;0.90;;;;;;;14.11;69.55;100188.38;4905403;28;96974;-52
2022/12/31 02:00:41;;;;;;;0.80;0.80;;;;;;;14.11;69.54;100178.06;4900850;28;97699;-54
2022/12/31 02:03:07;;;;;;;1.00;1.00;;;;;;;14.15;69.57;100175.03;4903528;28;97222;-53
2022/12/31 02:05:41;;;;;;;1.30;1.20;;;;;;;14.18;69.47;100183.00;4904210;28;97233;-54
2022/12/31 02:08:07;;;;;;;4.93;1.00;;;;;;;14.19;69.53;100178.22;4904965;28;97092;-52
2022/12/31 02:10:32;;;;;;;1.30;1.13;;;;;;;14.20;69.52;100174.16;4904542;28;96939;-52
2022/12/31 02:12:58;;;;;;;0.73;0.73;;;;;;;14.19;69.54;100169.91;4898549;28;97290;-53
2022/12/31 02:15:58;;;;;;;1.07;1.07;;;;;;;14.17;70.07;100178.00;4904071;28;97520;-53
2022/12/31 02:18:32;;;;;;;0.93;0.93;;;;;;;14.18;69.84;100174.69;4902646;28;97040;-52
2022/12/31 02:21:32;;;;;;;0.70;0.70;;;;;;;14.19;70.14;100165.13;4905007;28;96940;-55
2022/12/31 02:24:11;;;;;;;0.90;0.90;;;;;;;14.19;69.76;100156.09;4903475;28;100703;-52
2022/12/31 02:26:52;;;;;;;0.90;0.90;;;;;;;14.17;69.94;100159.38;4904043;28;101481;-52
2022/12/31 02:30:07;;;;;;;1.20;0.93;;;;;;;14.19;70.35;100176.19;4902165;28;97297;-52
2022/12/31 02:32:38;;;;;;;2.03;1.20;;;;;;;14.20;69.87;100165.84;4899477;28;97177;-52
2022/12/31 02:35:13;;;;;;;0.77;0.77;;;;;;;14.23;70.02;100160.03;4900996;28;102496;-52
2022/12/31 02:37:42;;;;;;;0.83;0.83;;;;;;;14.26;69.92;100158.22;4908525;28;103011;-52
2022/12/31 02:40:12;;;;;;;1.10;1.10;;;;;;;14.26;69.94;100149.94;4908468;28;96894;-52
2022/12/31 02:42:38;;;;;;;1.20;1.20;;;;;;;14.26;70.04;100141.63;4906467;28;97204;-53
2022/12/31 02:45:03;;;;;;;0.83;0.83;;;;;;;14.27;70.07;100134.81;4907760;28;97301;-52
2022/12/31 02:47:34;;;;;;;2.00;0.87;;;;;;;14.30;70.07;100138.56;4908146;28;97483;-53
2022/12/31 02:50:31;;;;;;;1.17;1.00;;;;;;;14.29;70.50;100132.28;4908491;28;97427;-53
2022/12/31 02:53:08;;;;;;;1.17;1.07;;;;;;;14.30;70.20;100133.03;4906149;28;96983;-54
2022/12/31 02:55:42;;;;;;;1.00;1.00;;;;;;;14.31;70.49;100134.53;4907427;28;97875;-53
2022/12/31 02:58:18;;;;;;;0.83;0.83;;;;;;;14.30;70.08;100136.56;4906399;28;97243;-54
2022/12/31 03:03:40;;;;;;;0.70;0.70;;;;;;;14.29;70.43;100159.94;4905691;28;98165;-53
2022/12/31 03:06:07;;;;;;;1.70;0.90;;;;;;;14.31;70.29;100154.63;4906559;28;98144;-55
2022/12/31 03:09:11;;;;;;;0.80;0.80;;;;;;;14.33;70.41;100149.31;4906782;28;102143;-54
2022/12/31 03:14:03;;;;;;;0.70;0.70;;;;;;;14.37;70.43;100137.94;4906476;28;97420;-55
2022/12/31 03:16:28;;;;;;;0.60;0.60;;;;;;;14.35;70.72;100130.16;4905126;28;97775;-54
2022/12/31 03:27:06;;;;;;;0.70;0.60;;;;;;;14.44;70.63;100132.50;4906537;28;101934;-54
2022/12/31 03:29:31;;;;;;;0.53;0.53;;;;;;;14.46;70.80;100138.25;4906186;28;97110;-53
2022/12/31 03:31:56;;;;;;;0.80;0.80;;;;;;;14.48;70.64;100134.97;4907425;28;97277;-54
2022/12/31 03:34:22;;;;;;;0.60;0.60;;;;;;;14.49;70.57;100126.13;4906186;28;96939;-54
2022/12/31 03:36:47;;;;;;;1.63;0.97;;;;;;;14.53;70.52;100118.25;4905481;28;97476;-53
2022/12/31 03:39:12;;;;;;;0.70;0.70;;;;;;;14.52;70.66;100111.22;4907718;28;97062;-53
2022/12/31 03:41:38;;;;;;;0.60;0.60;;;;;;;14.54;70.72;100110.69;4908366;28;97147;-53
2022/12/31 03:44:03;;;;;;;0.97;0.93;;;;;;;14.55;70.64;100110.16;4907393;28;98253;-53
2022/12/31 03:46:29;;;;;;;1.23;1.13;;;;;;;14.56;70.71;100103.34;4905690;28;97317;-54
2022/12/31 03:48:54;;;;;;;0.60;0.60;;;;;;;14.55;70.83;100107.38;4906367;28;96987;-52
2022/12/31 03:51:19;;;;;;;0.67;0.67;;;;;;;14.57;70.82;100106.88;4906733;28;97182;-53
2022/12/31 03:53:44;;;;;;;0.77;0.77;;;;;;;14.58;71.00;100111.88;4891923;28;97215;-52
2022/12/31 03:56:10;;;;;;;2.10;0.73;;;;;;;14.57;70.99;100118.66;4905951;28;97845;-53
2022/12/31 03:58:35;;;;;;;0.60;0.60;;;;;;;14.56;71.10;100139.34;4906834;28;97711;-55
2022/12/31 04:01:00;;;;;;;0.60;0.60;;;;;;;14.55;71.18;100109.41;4906610;28;96962;-52
2022/12/31 04:03:27;;;;;;;0.53;0.53;;;;;;;14.53;71.23;100117.50;4907184;28;96980;-55
2022/12/31 04:05:54;;;;;;;0.50;0.40;;;;;;;14.55;71.17;100109.41;4906956;28;101745;-53
2022/12/31 04:08:19;;;;;;;0.50;0.40;;;;;;;14.57;71.27;100107.59;4906222;28;97254;-53
2022/12/31 04:10:44;;;;;;;0.50;0.50;;;;;;;14.59;71.28;100118.16;4905168;28;96964;-53
2022/12/31 04:13:10;;;;;;;0.50;0.40;;;;;;;14.61;71.24;100116.31;4904779;28;97221;-54
2022/12/31 04:15:35;;;;;;;0.60;0.60;;;;;;;14.62;71.43;100109.53;4906171;28;97496;-53
2022/12/31 04:18:00;;;;;;;0.70;0.40;;;;;;;14.66;71.33;100106.41;4906521;28;97231;-54
2022/12/31 04:20:26;;;;;;;1.73;0.40;;;;;;;14.70;71.48;100104.09;4903841;28;97130;-53
2022/12/31 04:22:51;;;;;;;0.50;0.40;;;;;;;14.73;71.37;100114.09;4906446;28;97344;-53
2022/12/31 04:25:16;;;;;;;0.60;0.30;;;;;;;14.75;71.40;100106.00;4907577;28;96883;-54
2022/12/31 04:27:44;;;;;;;0.50;0.40;;;;;;;14.74;71.25;100119.09;4905987;28;97471;-53
2022/12/31 04:30:11;;;;;;;0.40;0.40;;;;;;;14.74;71.33;100149.53;4906147;28;100078;-54
2022/12/31 04:32:37;;;;;;;1.37;0.40;;;;;;;14.76;71.33;100165.63;4905623;28;97092;-54
2022/12/31 04:35:02;;;;;;;0.50;0.50;;;;;;;14.66;71.24;100170.84;4905341;28;97393;-53
2022/12/31 04:37:27;;;;;;;0.60;0.60;;;;;;;14.62;71.49;100164.13;4906224;28;97221;-54
2022/12/31 04:39:53;;;;;;;1.77;0.50;;;;;;;14.63;71.68;100171.19;4907004;28;97320;-55
2022/12/31 04:42:18;;;;;;;0.40;0.30;;;;;;;14.63;71.73;100174.69;4905644;28;97195;-53
2022/12/31 04:44:43;;;;;;;0.73;0.53;;;;;;;14.64;71.81;100184.47;4905643;28;97122;-54
2022/12/31 04:47:09;;;;;;;0.80;0.40;;;;;;;14.64;71.92;100206.63;4904128;28;97117;-53
2022/12/31 04:49:34;;;;;;;0.47;0.30;;;;;;;14.65;72.06;100205.38;4905164;28;97579;-55
2022/12/31 04:51:59;;;;;;;0.50;0.37;;;;;;;14.67;71.96;100204.81;4904320;28;97149;-54
2022/12/31 04:54:25;;;;;;;0.50;0.30;;;;;;;14.67;71.85;100202.06;4903505;28;100045;-52
2022/12/31 04:56:50;;;;;;;0.40;0.30;;;;;;;14.65;71.70;100202.59;4904669;28;97613;-55
2022/12/31 04:59:15;;;;;;;0.60;0.30;;;;;;;14.65;71.63;100208.13;4904599;28;97011;-55
2022/12/31 05:01:41;;;;;;;0.50;0.30;;;;;;;14.63;71.79;100198.84;4904257;28;97431;-53
2022/12/31 05:04:06;;;;;;;0.40;0.27;;;;;;;14.59;71.45;100171.47;4903404;28;97312;-54
2022/12/31 05:06:32;;;;;;;0.40;0.20;;;;;;;14.58;71.38;100138.78;4904699;28;97367;-53
2022/12/31 05:08:57;;;;;;;1.60;0.30;;;;;;;14.53;71.71;100117.50;4903643;28;97283;-53
2022/12/31 05:11:22;;;;;;;0.40;0.30;;;;;;;14.53;71.50;100107.16;4903675;28;96950;-55
2022/12/31 05:13:48;;;;;;;1.33;0.30;;;;;;;14.54;71.39;100092.06;4903762;28;97280;-53
2022/12/31 05:16:13;;;;;;;0.40;0.30;;;;;;;14.53;71.35;100089.81;4906373;28;97506;-53
2022/12/31 05:18:38;;;;;;;0.40;0.30;;;;;;;14.53;71.23;100089.81;4905824;28;96982;-53
2022/12/31 05:21:06;;;;;;;0.50;0.30;;;;;;;14.52;71.12;100083.56;4904697;28;96786;-53
2022/12/31 05:23:32;;;;;;;0.50;0.30;;;;;;;14.53;71.13;100087.03;4904353;28;100577;-53
2022/12/31 05:25:58;;;;;;;0.40;0.30;;;;;;;14.52;71.02;100099.41;4906002;28;97427;-53
2022/12/31 05:28:23;;;;;;;0.40;0.30;;;;;;;14.52;70.96;100138.16;4905034;28;97126;-55
2022/12/31 05:30:50;;;;;;;0.40;0.30;;;;;;;14.51;70.98;100142.19;4904769;28;96789;-53
2022/12/31 05:33:16;;;;;;;0.50;0.30;;;;;;;14.49;70.80;100167.66;4905223;28;97104;-53
2022/12/31 05:35:41;;;;;;;0.80;0.37;;;;;;;14.48;71.07;100173.72;4905857;28;100256;-52
2022/12/31 05:38:07;;;;;;;0.80;0.30;;;;;;;14.45;70.98;100170.00;4905080;28;98053;-52
2022/12/31 05:40:32;;;;;;;0.40;0.30;;;;;;;14.45;70.86;100166.47;4906476;28;96927;-53
2022/12/31 05:42:58;;;;;;;0.40;0.30;;;;;;;14.43;70.95;100164.25;4905021;28;97508;-53
2022/12/31 05:45:23;;;;;;;0.93;0.30;;;;;;;14.43;70.90;100169.78;4919066;28;100191;-53
2022/12/31 05:47:49;;;;;;;0.40;0.30;;;;;;;14.40;70.71;100167.31;4905140;28;96836;-53
2022/12/31 05:50:14;;;;;;;0.40;0.30;;;;;;;14.37;71.06;100162.84;4905889;28;97358;-52
2022/12/31 05:52:40;;;;;;;0.40;0.30;;;;;;;14.34;70.87;100166.66;4905422;28;97921;-52
2022/12/31 05:55:06;;;;;;;3.33;0.60;;;;;;;14.33;70.99;100181.78;4905069;28;97555;-53
2022/12/31 05:57:31;;;;;;;0.60;0.30;;;;;;;14.33;70.92;100173.50;4906479;28;97285;-53
2022/12/31 05:59:56;;;;;;;0.50;0.40;;;;;;;14.32;71.05;100210.72;4905777;28;97079;-53
2022/12/31 06:02:22;;;;;;;2.57;0.33;;;;;;;14.28;71.05;100220.03;4904395;28;98287;-53
2022/12/31 06:04:48;;;;;;;0.50;0.30;;;;;;;14.32;70.97;100208.72;4905357;28;97171;-54
2022/12/31 06:07:14;;;;;;;0.60;0.47;;;;;;;14.31;70.88;100201.66;4906135;28;98456;-54
2022/12/31 06:09:39;;;;;;;0.50;0.30;;;;;;;14.31;70.96;100198.91;4905246;28;97337;-53
2022/12/31 06:12:05;;;;;;;0.50;0.30;;;;;;;14.31;70.64;100195.41;4906314;28;97222;-55
2022/12/31 06:14:31;;;;;;;1.23;0.40;;;;;;;14.31;70.95;100189.88;4908366;28;97367;-54
2022/12/31 06:16:56;;;;;;;0.83;0.30;;;;;;;14.29;71.03;100195.91;4907676;28;97078;-54
2022/12/31 06:19:22;;;;;;;3.40;0.40;;;;;;;14.30;70.95;100189.13;4907552;28;97075;-54
2022/12/31 06:21:47;;;;;;;1.67;0.43;;;;;;;14.31;70.92;100190.59;4907932;28;97049;-54
2022/12/31 06:24:12;;;;;;;0.50;0.30;;;;;;;14.31;70.85;100196.13;4907884;28;100619;-54
2022/12/31 06:26:38;;;;;;;1.90;0.40;;;;;;;14.30;70.91;100180.81;4908948;28;96719;-53
2022/12/31 06:29:03;;;;;;;0.43;0.33;;;;;;;14.30;70.82;100161.44;4906581;28;97260;-55
2022/12/31 06:31:28;;;;;;;4.40;0.30;;;;;;;14.28;70.77;100180.59;4907312;28;96828;-55
2022/12/31 06:33:54;;;;;;;1.17;0.30;;;;;;;14.28;70.79;100177.81;4907758;28;97043;-53
2022/12/31 06:36:20;;;;;;;0.40;0.30;;;;;;;14.31;70.84;100189.88;4908412;28;97429;-53
2022/12/31 06:38:46;;;;;;;1.17;0.33;;;;;;;14.31;70.79;100201.66;4905785;28;97145;-54
2022/12/31 06:41:14;;;;;;;0.50;0.30;;;;;;;14.32;70.96;100203.19;4907802;28;97315;-53
2022/12/31 06:43:41;;;;;;;0.70;0.43;;;;;;;14.30;70.95;100202.97;4907696;28;100205;-54
2022/12/31 06:46:09;;;;;;;0.50;0.50;;;;;;;14.31;70.91;100218.28;4922685;28;97475;-54
2022/12/31 06:48:36;;;;;;;0.40;0.30;;;;;;;14.33;70.94;100224.03;4907277;28;97658;-53
2022/12/31 06:51:06;;;;;;;1.70;0.40;;;;;;;14.35;70.81;100220.75;4907422;28;97067;-54
2022/12/31 06:53:32;;;;;;;0.57;0.40;;;;;;;14.32;70.85;100219.03;4906560;28;98634;-55
2022/12/31 06:56:03;;;;;;;1.27;0.40;;;;;;;14.31;70.87;100223.81;4908329;28;97594;-54
2022/12/31 06:58:29;;;;;;;0.70;0.40;;;;;;;14.29;70.99;100237.44;4907921;28;96765;-55
2022/12/31 07:01:36;;;;;;;0.40;0.30;;;;;;;14.30;71.15;100227.88;4907253;28;101133;-54
2022/12/31 07:04:26;;;;;;;0.70;0.30;;;;;;;14.29;71.02;100226.34;4906368;28;101917;-53
2022/12/31 07:07:04;;;;;;;0.47;0.40;;;;;;;14.29;71.09;100220.81;4890725;28;96914;-53
2022/12/31 07:09:47;;;;;;;0.50;0.40;;;;;;;14.26;71.30;100210.81;4895111;28;97487;-55
2022/12/31 07:12:38;;;;;;;1.07;0.30;;;;;;;14.27;71.18;100220.56;4906419;28;100507;-54
2022/12/31 07:15:05;;;;;;;0.50;0.40;;;;;;;14.24;70.92;100219.59;4906741;28;97047;-53
2022/12/31 07:17:41;;;;;;;0.60;0.43;;;;;;;14.28;71.17;100208.25;4908030;28;97034;-53
2022/12/31 07:20:13;;;;;;;0.40;0.30;;;;;;;14.30;71.16;100216.78;4907172;28;97293;-53
2022/12/31 07:22:38;;;;;;;1.70;0.33;;;;;;;14.33;71.20;100215.00;4904498;28;99056;-53
2022/12/31 07:25:05;;;;;;;2.53;0.50;;;;;;;14.35;71.22;100213.16;4907274;28;97238;-54
2022/12/31 07:27:58;;;;;;;0.60;0.40;;;;;;;14.35;71.37;100226.28;4906803;28;96709;-53
2022/12/31 07:30:44;;;;;;;0.40;0.37;;;;;;;14.33;71.46;100226.06;4906236;28;96753;-53
2022/12/31 07:33:27;;;;;;;0.50;0.40;;;;;;;14.34;71.60;100233.06;4906333;28;100509;-54
2022/12/31 07:36:24;;;;;;;2.30;0.50;;;;;;;14.39;71.54;100235.78;4906723;28;97153;-54
2022/12/31 07:38:59;;;;;;;0.50;0.40;;;;;;;14.39;71.40;100224.69;4904632;28;97456;-53
2022/12/31 07:41:37;;;;;;;2.80;0.30;;;;;;;14.42;71.50;100233.94;4905080;28;97559;-53
2022/12/31 07:44:31;;;;;;;0.50;0.37;;;;;;;14.44;71.72;100225.88;4907159;28;101905;-54
2022/12/31 07:46:59;;;;;;;0.40;0.30;;;;;;;14.46;71.53;100228.88;4906789;28;100048;-53
2022/12/31 07:49:26;;;;;;;0.50;0.40;;;;;;;14.48;71.53;100238.09;4906659;28;96770;-53
2022/12/31 07:51:52;;;;;;;1.33;0.40;;;;;;;14.51;71.55;100242.59;4907169;28;98672;-53
2022/12/31 07:54:18;;;;;;;0.50;0.40;;;;;;;14.51;71.52;100250.16;4906479;28;97422;-53
2022/12/31 07:56:44;;;;;;;0.40;0.30;;;;;;;14.52;71.65;100252.41;4904516;28;100049;-53
2022/12/31 07:59:18;;;;;;;0.40;0.40;;;;;;;14.55;71.58;100251.34;4907006;28;97056;-53
2022/12/31 08:02:03;;;;;;;1.77;0.40;;;;;;;14.56;71.67;100250.06;4906221;28;97304;-53
2022/12/31 08:04:56;;;;;;;0.40;0.30;;;;;;;14.56;71.43;100266.69;4906144;28;100714;-54
2022/12/31 08:07:59;;;;;;;0.80;0.40;;;;;;;14.52;71.70;100277.31;4904324;28;96848;-53
2022/12/31 08:10:27;;;;;;;0.80;0.40;;;;;;;14.48;71.74;100232.56;4906736;28;97390;-54
2022/12/31 08:13:07;;;;;;;0.50;0.40;;;;;;;14.48;72.08;100254.72;4905905;28;99486;-53
2022/12/31 08:15:35;;;;;;;0.50;0.47;;;;;;;14.49;71.80;100266.53;4905779;28;102501;-53
2022/12/31 08:18:01;;;;;;;0.57;0.40;;;;;;;14.50;71.99;100238.34;4906428;28;96744;-53
2022/12/31 08:20:29;;;;;;;0.43;0.30;;;;;;;14.51;71.89;100256.44;4907179;28;97235;-53
2022/12/31 08:23:23;;;;;;;0.40;0.30;;;;;;;14.51;72.18;100267.50;4905389;28;97072;-53
2022/12/31 08:26:21;;;;;;;0.50;0.30;;;;;;;14.52;72.46;100244.09;4905595;28;100765;-53
2022/12/31 08:29:01;;;;;;;0.70;0.30;;;;;;;14.56;72.01;100221.63;4905542;28;104865;-53
2022/12/31 08:31:43;;;;;;;0.47;0.30;;;;;;;14.58;72.06;100236.44;4905332;28;96925;-53
2022/12/31 08:34:29;;;;;;;0.50;0.40;;;;;;;14.62;72.17;100245.19;4903846;28;97103;-53
2022/12/31 08:36:57;;;;;;;2.00;0.50;;;;;;;14.66;72.05;100253.16;4905192;28;102046;-53
2022/12/31 08:39:32;;;;;;;0.40;0.30;;;;;;;14.70;72.25;100248.06;4907100;28;101654;-53
2022/12/31 08:42:01;;;;;;;0.40;0.40;;;;;;;14.73;71.96;100249.75;4905075;28;96908;-53
2022/12/31 08:44:57;;;;;;;0.47;0.40;;;;;;;14.76;72.12;100262.56;4907236;28;96998;-53
2022/12/31 08:47:53;;;;;;;1.33;0.40;;;;;;;14.78;72.13;100268.31;4903367;28;100693;-55
2022/12/31 08:50:19;;;;;;;0.70;0.70;;;;;;;14.79;71.86;100259.47;4904281;28;100659;-53
2022/12/31 08:52:47;;;;;;;0.70;0.70;;;;;;;14.82;71.89;100261.19;4905973;28;97346;-55
2022/12/31 08:55:17;;;;;;;1.10;1.00;;;;;;;14.86;71.91;100247.75;4906100;28;97043;-54
2022/12/31 08:57:53;;;;;;;0.70;0.60;;;;;;;14.88;71.90;100258.31;4901909;28;96789;-53
2022/12/31 09:00:19;;;;;;;0.50;0.47;;;;;;;14.91;71.81;100249.69;4904923;28;100277;-53
2022/12/31 09:03:05;;;;;;;0.60;0.50;;;;;;;14.91;72.18;100248.94;4904142;28;97998;-53
2022/12/31 09:05:49;;;;;;;0.50;0.40;;;;;;;14.93;71.98;100260.97;4907079;28;96980;-53
2022/12/31 09:08:26;;;;;;;0.40;0.33;;;;;;;14.97;72.22;100264.19;4904756;28;97507;-53
2022/12/31 09:11:11;;;;;;;0.50;0.50;;;;;;;15.01;72.22;100247.22;4904315;28;101653;-53
2022/12/31 09:13:59;;;;;;;0.50;0.40;;;;;;;15.03;72.49;100247.44;4905372;28;97367;-53
2022/12/31 09:16:43;;;;;;;0.40;0.40;;;;;;;15.06;72.26;100249.16;4906921;28;97446;-53
2022/12/31 09:19:09;;;;;;;0.70;0.40;;;;;;;15.06;72.14;100260.22;4904707;28;100592;-53
2022/12/31 09:21:36;;;;;;;0.43;0.37;;;;;;;15.07;72.17;100261.00;4906345;28;97221;-54
2022/12/31 09:24:03;;;;;;;0.50;0.37;;;;;;;15.11;72.15;100258.63;4906873;28;96909;-53
2022/12/31 09:26:50;;;;;;;0.90;0.90;;;;;;;15.15;72.36;100242.44;4906588;28;97279;-53
2022/12/31 09:29:42;;;;;;;0.50;0.40;;;;;;;15.13;72.68;100239.47;4889813;28;102127;-54
2022/12/31 09:32:21;;;;;;;0.50;0.50;;;;;;;15.15;72.61;100253.53;4905255;28;100406;-53
2022/12/31 09:34:55;;;;;;;2.30;1.20;;;;;;;15.17;72.44;100250.97;4904944;28;96997;-55
2022/12/31 09:37:34;;;;;;;0.50;0.40;;;;;;;15.17;72.64;100250.97;4904597;28;97488;-55
2022/12/31 09:40:16;;;;;;;0.60;0.50;;;;;;;15.15;72.65;100259.06;4899297;28;97407;-54
2022/12/31 09:43:04;;;;;;;0.50;0.43;;;;;;;15.17;73.03;100256.50;4903687;28;96802;-54
2022/12/31 09:45:41;;;;;;;0.50;0.50;;;;;;;15.20;72.77;100219.41;4904870;28;97033;-54
2022/12/31 09:48:44;;;;;;;0.50;0.40;;;;;;;15.18;73.74;100236.56;4907755;28;97745;-54
2022/12/31 09:51:21;;;;;;;0.87;0.40;;;;;;;15.23;73.37;100240.50;4907095;28;101985;-53
2022/12/31 09:54:13;;;;;;;1.57;0.33;;;;;;;15.31;73.75;100222.69;4908251;28;97707;-53
2022/12/31 09:57:06;;;;;;;0.40;0.37;;;;;;;15.38;73.56;100226.84;4905742;28;98562;-53
2022/12/31 09:59:45;;;;;;;0.50;0.30;;;;;;;15.44;73.27;100233.06;4908942;28;97240;-53
2022/12/31 10:02:28;;;;;;;0.50;0.40;;;;;;;15.47;73.32;100262.47;4907203;28;100550;-54
2022/12/31 10:05:11;;;;;;;0.40;0.40;;;;;;;15.50;73.32;100306.53;4906572;28;97183;-53
2022/12/31 10:07:59;;;;;;;0.50;0.40;;;;;;;15.47;73.30;100301.28;4906010;28;96853;-53
2022/12/31 10:10:51;;;;;;;0.50;0.40;;;;;;;15.44;73.38;100294.78;4907490;28;96833;-54
2022/12/31 10:13:30;;;;;;;0.50;0.50;;;;;;;15.46;73.64;100283.16;4907399;28;100599;-54
2022/12/31 10:16:07;;;;;;;0.50;0.47;;;;;;;15.48;73.19;100283.38;4906940;28;101067;-54
2022/12/31 10:19:10;;;;;;;0.40;0.30;;;;;;;15.56;73.84;100279.41;4908738;28;97293;-55
2022/12/31 10:21:44;;;;;;;0.50;0.40;;;;;;;15.63;73.36;100306.50;4907313;28;97410;-53
2022/12/31 10:24:41;;;;;;;0.50;0.40;;;;;;;15.68;73.59;100324.31;4906480;28;97191;-53
2022/12/31 10:27:11;;;;;;;0.50;0.40;;;;;;;15.69;73.13;100309.16;4907648;28;99982;-54
2022/12/31 10:29:53;;;;;;;1.47;0.40;;;;;;;15.68;73.38;100307.66;4907817;28;96948;-56
2022/12/31 10:32:30;;;;;;;0.77;0.40;;;;;;;15.70;73.10;100307.88;4905902;28;96997;-55
2022/12/31 10:35:25;;;;;;;1.60;0.63;;;;;;;15.71;73.65;100278.84;4906916;28;97435;-55
2022/12/31 10:38:03;;;;;;;3.93;0.50;;;;;;;15.73;73.20;100267.97;4905703;28;101031;-54
2022/12/31 10:40:40;;;;;;;0.40;0.30;;;;;;;15.77;73.34;100269.13;4907807;28;96993;-54
2022/12/31 10:43:39;;;;;;;0.50;0.40;;;;;;;15.80;73.71;100261.75;4907159;28;97409;-53
2022/12/31 10:46:17;;;;;;;0.70;0.60;;;;;;;15.85;73.60;100252.56;4896597;28;102252;-54
2022/12/31 10:49:10;;;;;;;0.50;0.50;;;;;;;15.89;73.67;100255.75;4905710;28;100020;-53
2022/12/31 10:52:13;;;;;;;0.73;0.30;;;;;;;15.94;73.68;100252.13;4899280;28;97259;-54
2022/12/31 10:55:04;;;;;;;0.50;0.40;;;;;;;15.97;73.27;100261.38;4907491;28;97455;-54
2022/12/31 10:58:04;;;;;;;0.50;0.40;;;;;;;15.99;73.42;100264.38;4902537;28;102564;-54
2022/12/31 11:00:39;;;;;;;0.40;0.30;;;;;;;16.01;73.11;100286.78;4890057;28;100152;-53
2022/12/31 11:03:07;;;;;;;0.50;0.30;;;;;;;16.01;73.07;100309.72;4904590;28;97210;-54
2022/12/31 11:06:28;;;;;;;1.67;0.50;;;;;;;15.96;73.60;100341.13;4905943;28;97407;-54
2022/12/31 11:09:23;;;;;;;0.50;0.40;;;;;;;15.96;73.61;100326.50;4882403;28;100567;-55
2022/12/31 11:11:57;;;;;;;0.70;0.63;;;;;;;15.96;73.33;100313.38;4905880;28;101588;-54
2022/12/31 11:14:26;;;;;;;0.50;0.50;;;;;;;15.97;73.46;100314.09;4906422;28;97242;-54
2022/12/31 11:17:31;;;;;;;1.17;0.60;;;;;;;16.03;73.73;100314.75;4905585;28;96819;-53
2022/12/31 11:20:22;;;;;;;0.50;0.40;;;;;;;16.05;73.71;100326.81;4904101;28;100665;-54
2022/12/31 11:23:09;;;;;;;0.87;0.50;;;;;;;16.08;73.83;100336.81;4905296;28;101125;-54
2022/12/31 11:25:53;;;;;;;1.37;0.57;;;;;;;16.10;73.48;100350.88;4905872;28;97266;-53
2022/12/31 11:28:40;;;;;;;0.50;0.50;;;;;;;16.14;73.79;100339.47;4902062;28;97904;-53
2022/12/31 11:31:30;;;;;;;0.53;0.50;;;;;;;16.18;73.83;100357.28;4904563;28;102170;-53
2022/12/31 11:34:27;;;;;;;0.50;0.40;;;;;;;16.20;73.92;100345.63;4904659;28;101634;-53
2022/12/31 11:37:06;;;;;;;1.70;0.40;;;;;;;16.21;74.05;100355.44;4904581;28;97145;-53
2022/12/31 11:39:42;;;;;;;0.50;0.50;;;;;;;16.25;73.89;100348.28;4906727;28;97047;-53
2022/12/31 11:42:36;;;;;;;0.50;0.40;;;;;;;16.28;74.77;100352.75;4900423;28;101241;-54
2022/12/31 11:45:11;;;;;;;1.17;0.40;;;;;;;16.35;74.24;100343.03;4904997;28;96715;-55
2022/12/31 11:47:42;;;;;;;0.63;0.40;;;;;;;16.41;74.00;100336.06;4906135;28;97132;-53
2022/12/31 11:50:29;;;;;;;0.50;0.40;;;;;;;16.44;74.48;100321.09;4907133;28;97371;-53
2022/12/31 11:53:17;;;;;;;0.60;0.43;;;;;;;16.47;74.32;100322.03;4905557;28;100683;-53
2022/12/31 11:55:46;;;;;;;0.60;0.40;;;;;;;16.47;74.04;100322.78;4906196;28;100763;-53
2022/12/31 11:58:17;;;;;;;0.50;0.40;;;;;;;16.49;74.11;100331.31;4905806;28;97044;-53
2022/12/31 12:00:53;;;;;;;0.50;0.40;;;;;;;16.54;74.38;100331.75;4907480;28;97407;-53
2022/12/31 12:03:18;;;;;;;0.50;0.37;;;;;;;16.57;74.09;100330.66;4906288;28;101784;-54
2022/12/31 12:05:43;;;;;;;0.40;0.30;;;;;;;16.60;74.13;100330.31;4906051;28;97499;-53